createdAt,value
2018-08-31T00:02:06.347Z,24.26
2018-08-31T00:04:32.299Z,23.70
2018-08-31T00:06:58.272Z,24.14
2018-08-31T00:09:24.231Z,24.03
2018-08-31T00:11:50.194Z,24.24
2018-08-31T00:14:16.144Z,24.17
2018-08-31T00:16:42.091Z,24.01
2018-08-31T00:19:08.027Z,24.35
2018-08-31T00:21:33.995Z,23.88
2018-08-31T00:23:59.953Z,24.15
2018-08-31T00:26:25.925Z,24.06
2018-08-31T00:28:51.880Z,23.96
2018-08-31T00:31:17.940Z,24.04
2018-08-31T00:33:43.876Z,23.77
2018-08-31T00:36:09.815Z,24.25
2018-08-31T00:38:35.759Z,24.06
2018-08-31T00:41:01.724Z,24.04
2018-08-31T00:43:27.684Z,23.77
2018-08-31T00:45:53.632Z,24.00
2018-08-31T00:48:19.607Z,24.17
2018-08-31T00:50:45.561Z,24.08
2018-08-31T00:53:11.512Z,24.01
2018-08-31T00:55:37.479Z,24.00
2018-08-31T00:58:03.444Z,24.04
2018-08-31T01:00:29.417Z,23.92
2018-08-31T01:02:55.410Z,24.18
2018-08-31T01:05:21.392Z,24.28
2018-08-31T01:07:47.341Z,23.72
2018-08-31T01:10:13.304Z,24.06
2018-08-31T01:12:39.470Z,23.81
2018-08-31T01:15:05.412Z,24.00
2018-08-31T01:17:31.365Z,24.25
2018-08-31T01:19:57.317Z,23.92
2018-08-31T01:22:23.286Z,24.20
2018-08-31T01:24:49.243Z,23.82
2018-08-31T01:27:15.207Z,23.95
2018-08-31T01:29:41.145Z,23.89
2018-08-31T01:32:07.204Z,23.92
2018-08-31T01:34:33.162Z,23.57
2018-08-31T01:36:59.123Z,23.64
2018-08-31T01:39:25.104Z,23.40
2018-08-31T01:41:51.059Z,23.60
2018-08-31T01:44:16.984Z,23.51
2018-08-31T01:46:42.933Z,23.33
2018-08-31T01:49:08.887Z,23.26
2018-08-31T01:51:34.829Z,23.24
2018-08-31T01:54:00.766Z,23.32
2018-08-31T01:56:26.727Z,23.25
2018-08-31T01:58:52.668Z,23.07
2018-08-31T02:01:18.630Z,23.53
2018-08-31T02:03:44.561Z,23.24
2018-08-31T02:06:10.512Z,23.44
2018-08-31T02:08:36.543Z,23.28
2018-08-31T02:11:02.494Z,23.24
2018-08-31T02:13:28.455Z,23.19
2018-08-31T02:15:54.382Z,22.81
2018-08-31T02:18:20.428Z,22.92
2018-08-31T02:20:46.371Z,23.21
2018-08-31T02:23:12.327Z,23.19
2018-08-31T02:25:38.287Z,23.39
2018-08-31T02:28:04.253Z,22.56
2018-08-31T02:30:30.205Z,23.15
2018-08-31T02:32:56.160Z,22.98
2018-08-31T02:35:22.090Z,23.21
2018-08-31T02:37:48.034Z,23.09
2018-08-31T02:40:13.960Z,22.77
2018-08-31T02:42:39.917Z,23.03
2018-08-31T02:45:05.867Z,22.83
2018-08-31T02:47:31.818Z,23.02
2018-08-31T02:49:57.776Z,22.76
2018-08-31T02:52:23.734Z,22.91
2018-08-31T02:54:49.672Z,22.89
2018-08-31T02:57:15.605Z,23.03
2018-08-31T02:59:41.529Z,22.70
2018-08-31T03:02:07.487Z,22.90
2018-08-31T03:04:33.438Z,23.04
2018-08-31T03:06:59.366Z,22.90
2018-08-31T03:09:25.450Z,22.63
2018-08-31T03:11:51.449Z,22.62
2018-08-31T03:14:17.449Z,22.47
2018-08-31T03:16:43.397Z,22.33
2018-08-31T03:19:09.340Z,22.41
2018-08-31T03:21:35.302Z,22.49
2018-08-31T03:24:01.314Z,22.35
2018-08-31T03:26:27.283Z,22.35
2018-08-31T03:28:53.216Z,22.44
2018-08-31T03:31:19.208Z,22.63
2018-08-31T03:33:45.235Z,22.34
2018-08-31T03:36:11.233Z,22.33
2018-08-31T03:38:37.222Z,22.40
2018-08-31T03:41:03.206Z,22.62
2018-08-31T03:43:29.161Z,22.62
2018-08-31T03:45:55.159Z,22.57
2018-08-31T03:48:21.135Z,22.50
2018-08-31T03:50:47.109Z,22.45
2018-08-31T03:53:13.063Z,22.52
2018-08-31T03:55:39.025Z,22.87
2018-08-31T03:58:04.944Z,22.60
2018-08-31T04:00:30.951Z,22.60
2018-08-31T04:02:56.864Z,22.75
2018-08-31T04:05:22.879Z,22.67
2018-08-31T04:07:48.843Z,22.49
2018-08-31T04:10:14.800Z,22.36
2018-08-31T04:12:40.745Z,22.30
2018-08-31T04:15:06.798Z,22.49
2018-08-31T04:17:32.712Z,22.32
2018-08-31T04:19:58.771Z,22.14
2018-08-31T04:22:24.705Z,22.68
2018-08-31T04:24:50.659Z,22.67
2018-08-31T04:27:16.611Z,22.67
2018-08-31T04:29:42.589Z,22.65
2018-08-31T04:32:08.536Z,22.86
2018-08-31T04:34:34.468Z,22.87
2018-08-31T04:37:00.427Z,22.46
2018-08-31T04:39:26.386Z,22.50
2018-08-31T04:41:52.330Z,22.86
2018-08-31T04:44:18.291Z,22.41
2018-08-31T04:46:44.263Z,22.47
2018-08-31T04:49:10.214Z,22.74
2018-08-31T04:51:36.180Z,22.77
2018-08-31T04:54:02.149Z,22.47
2018-08-31T04:56:28.123Z,22.58
2018-08-31T04:58:54.108Z,22.77
2018-08-31T05:01:20.047Z,22.52
2018-08-31T05:03:45.982Z,22.50
2018-08-31T05:06:11.931Z,23.07
2018-08-31T05:08:37.907Z,22.89
2018-08-31T05:11:03.964Z,22.72
2018-08-31T05:13:29.904Z,22.90
2018-08-31T05:15:55.895Z,23.16
2018-08-31T05:18:21.844Z,23.02
2018-08-31T05:20:47.805Z,22.95
2018-08-31T05:23:13.736Z,23.21
2018-08-31T05:25:39.679Z,23.35
2018-08-31T05:28:05.685Z,23.31
2018-08-31T05:30:31.655Z,23.67
2018-08-31T05:32:57.594Z,23.56
2018-08-31T05:35:23.542Z,23.82
2018-08-31T05:37:49.528Z,23.83
2018-08-31T05:40:15.515Z,24.10
2018-08-31T05:42:41.473Z,24.06
2018-08-31T05:45:07.425Z,24.30
2018-08-31T05:47:33.414Z,24.24
2018-08-31T05:49:59.376Z,24.33
2018-08-31T05:52:25.432Z,24.54
2018-08-31T05:54:51.379Z,24.29
2018-08-31T05:57:17.317Z,24.38
2018-08-31T05:59:43.273Z,24.26
2018-08-31T06:02:09.285Z,24.46
2018-08-31T06:04:35.254Z,24.51
2018-08-31T06:07:01.236Z,24.77
2018-08-31T06:09:27.200Z,24.55
2018-08-31T06:11:53.262Z,24.64
2018-08-31T06:14:19.169Z,24.97
2018-08-31T06:16:45.124Z,24.98
2018-08-31T06:19:11.088Z,24.79
2018-08-31T06:21:37.040Z,25.28
2018-08-31T06:24:02.996Z,25.26
2018-08-31T06:26:28.932Z,25.43
2018-08-31T06:28:54.923Z,25.55
2018-08-31T06:31:20.868Z,25.23
2018-08-31T06:33:46.895Z,25.45
2018-08-31T06:36:12.845Z,25.58
2018-08-31T06:38:38.845Z,25.61
2018-08-31T06:41:04.797Z,25.86
2018-08-31T06:43:30.741Z,25.67
2018-08-31T06:45:56.696Z,25.86
2018-08-31T06:48:22.640Z,25.78
2018-08-31T06:50:48.600Z,25.41
2018-08-31T06:53:14.572Z,25.91
2018-08-31T06:55:40.538Z,25.82
2018-08-31T06:58:06.520Z,26.03
2018-08-31T07:00:32.489Z,26.01
2018-08-31T07:02:58.516Z,26.03
2018-08-31T07:05:24.453Z,25.94
2018-08-31T07:07:50.566Z,25.91
2018-08-31T07:10:16.527Z,25.79
2018-08-31T07:12:42.483Z,25.97
2018-08-31T07:15:08.473Z,26.11
2018-08-31T07:17:34.430Z,25.92
2018-08-31T07:20:00.388Z,26.10
2018-08-31T07:22:26.376Z,26.47
2018-08-31T07:24:52.333Z,26.23
2018-08-31T07:27:18.282Z,26.04
2018-08-31T07:29:44.277Z,26.08
2018-08-31T07:32:10.327Z,26.01
2018-08-31T07:34:36.281Z,26.34
2018-08-31T07:37:02.238Z,26.04
2018-08-31T07:39:28.210Z,25.94
2018-08-31T07:41:54.168Z,25.83
2018-08-31T07:44:20.132Z,26.12
2018-08-31T07:46:46.099Z,26.10
2018-08-31T07:49:12.073Z,26.01
2018-08-31T07:51:38.013Z,25.97
2018-08-31T07:54:04.057Z,26.35
2018-08-31T07:56:30.026Z,25.97
2018-08-31T07:58:55.984Z,25.97
2018-08-31T08:01:21.971Z,25.87
2018-08-31T08:03:47.973Z,25.87
2018-08-31T08:06:13.918Z,25.50
2018-08-31T08:08:39.868Z,25.62
2018-08-31T08:11:05.828Z,25.90
2018-08-31T08:13:31.784Z,26.04
2018-08-31T08:15:57.720Z,26.02
2018-08-31T08:18:23.685Z,25.98
2018-08-31T08:20:49.656Z,26.75
2018-08-31T08:23:15.588Z,26.80
2018-08-31T08:25:41.540Z,26.76
2018-08-31T08:28:07.582Z,26.42
2018-08-31T08:30:33.539Z,26.33
2018-08-31T08:32:59.519Z,26.08
2018-08-31T08:35:25.483Z,25.63
2018-08-31T08:37:51.467Z,25.42
2018-08-31T08:40:17.448Z,25.24
2018-08-31T08:42:43.385Z,25.28
2018-08-31T08:45:09.358Z,25.59
2018-08-31T08:47:35.312Z,25.71
2018-08-31T08:50:01.298Z,25.41
2018-08-31T08:52:27.247Z,25.36
2018-08-31T08:54:53.227Z,25.07
2018-08-31T08:57:19.198Z,25.16
2018-08-31T08:59:45.144Z,25.05
2018-08-31T09:02:11.080Z,24.86
2018-08-31T09:04:37.046Z,25.07
2018-08-31T09:07:03.003Z,24.95
2018-08-31T09:09:28.990Z,24.83
2018-08-31T09:11:54.980Z,24.95
2018-08-31T09:14:20.930Z,25.13
2018-08-31T09:16:46.985Z,24.74
2018-08-31T09:19:12.979Z,24.92
2018-08-31T09:21:38.966Z,25.10
2018-08-31T09:24:04.914Z,24.96
2018-08-31T09:26:30.886Z,24.70
2018-08-31T09:28:56.866Z,25.07
2018-08-31T09:31:22.864Z,25.30
2018-08-31T09:33:48.830Z,25.34
2018-08-31T09:36:14.778Z,25.50
2018-08-31T09:38:40.734Z,25.38
2018-08-31T09:41:06.684Z,25.58
2018-08-31T09:43:32.622Z,25.45
2018-08-31T09:45:58.563Z,25.23
2018-08-31T09:48:24.528Z,25.53
2018-08-31T09:50:50.474Z,25.68
2018-08-31T09:53:16.420Z,25.80
2018-08-31T09:55:42.379Z,25.63
2018-08-31T09:58:08.343Z,25.53
2018-08-31T10:00:34.293Z,25.61
2018-08-31T10:03:00.233Z,25.48
2018-08-31T10:05:26.205Z,25.24
2018-08-31T10:07:52.139Z,25.44
2018-08-31T10:10:18.080Z,25.50
2018-08-31T10:12:44.037Z,25.51
2018-08-31T10:15:09.973Z,25.28
2018-08-31T10:17:35.916Z,25.49
2018-08-31T10:20:01.878Z,25.71
2018-08-31T10:22:27.860Z,25.27
2018-08-31T10:24:53.808Z,25.21
2018-08-31T10:27:19.804Z,25.46
2018-08-31T10:29:45.752Z,25.28
2018-08-31T10:32:11.723Z,25.57
2018-08-31T10:34:37.664Z,25.34
2018-08-31T10:37:03.650Z,25.40
2018-08-31T10:39:29.623Z,25.61
2018-08-31T10:41:55.584Z,25.80
2018-08-31T10:44:21.599Z,25.44
2018-08-31T10:46:47.586Z,25.53
2018-08-31T10:49:13.557Z,25.59
2018-08-31T10:51:39.526Z,25.78
2018-08-31T10:54:05.516Z,25.60
2018-08-31T10:56:31.567Z,25.65
2018-08-31T10:58:57.523Z,25.79
2018-08-31T11:01:23.477Z,25.56
2018-08-31T11:03:49.449Z,25.41
2018-08-31T11:06:15.411Z,25.39
2018-08-31T11:08:41.345Z,25.33
2018-08-31T11:11:07.286Z,25.75
2018-08-31T11:13:33.237Z,25.90
2018-08-31T11:15:59.195Z,25.55
2018-08-31T11:18:25.171Z,25.66
2018-08-31T11:20:51.209Z,26.03
2018-08-31T11:23:17.144Z,26.03
2018-08-31T11:25:43.096Z,25.63
2018-08-31T11:28:09.033Z,25.67
2018-08-31T11:30:35.011Z,25.81
2018-08-31T11:33:01.001Z,25.95
2018-08-31T11:35:26.937Z,25.69
2018-08-31T11:37:52.873Z,25.81
2018-08-31T11:40:18.847Z,25.84
2018-08-31T11:42:44.812Z,25.71
2018-08-31T11:45:10.766Z,25.70
2018-08-31T11:47:36.729Z,25.71
2018-08-31T11:50:02.683Z,25.73
2018-08-31T11:52:28.629Z,25.80
2018-08-31T11:54:54.618Z,25.98
2018-08-31T11:57:20.611Z,25.94
2018-08-31T11:59:46.559Z,25.89
2018-08-31T12:02:12.548Z,25.88
2018-08-31T12:04:38.515Z,25.82
2018-08-31T12:07:04.517Z,25.77
2018-08-31T12:09:30.476Z,26.07
2018-08-31T12:11:56.468Z,25.96
2018-08-31T12:14:22.456Z,25.98
2018-08-31T12:16:48.436Z,26.07
2018-08-31T12:19:14.395Z,25.76
2018-08-31T12:21:40.325Z,26.16
2018-08-31T12:24:06.261Z,26.25
2018-08-31T12:26:32.210Z,26.18
2018-08-31T12:28:58.169Z,25.99
2018-08-31T12:31:24.160Z,26.20
2018-08-31T12:33:50.147Z,26.11
2018-08-31T12:36:16.114Z,25.98
2018-08-31T12:38:42.065Z,26.22
2018-08-31T12:41:08.034Z,26.21
2018-08-31T12:43:33.998Z,26.12
2018-08-31T12:45:59.967Z,25.87
2018-08-31T12:48:26.014Z,26.03
2018-08-31T12:50:52.045Z,25.98
2018-08-31T12:53:18.019Z,26.19
2018-08-31T12:55:43.992Z,26.20
2018-08-31T12:58:09.936Z,26.03
2018-08-31T13:00:35.949Z,25.85
2018-08-31T13:03:01.923Z,26.15
2018-08-31T13:05:27.879Z,25.92
2018-08-31T13:07:53.819Z,26.15
2018-08-31T13:10:19.793Z,26.18
2018-08-31T13:12:45.744Z,26.31
2018-08-31T13:15:11.715Z,26.18
2018-08-31T13:17:37.658Z,26.08
2018-08-31T13:20:03.743Z,26.11
2018-08-31T13:22:29.637Z,26.25
2018-08-31T13:24:55.589Z,26.26
2018-08-31T13:27:21.554Z,26.07
2018-08-31T13:29:47.517Z,25.94
2018-08-31T13:32:13.460Z,26.20
2018-08-31T13:34:39.424Z,26.18
2018-08-31T13:37:05.376Z,26.01
2018-08-31T13:39:31.349Z,26.19
2018-08-31T13:41:57.325Z,26.22
2018-08-31T13:44:23.350Z,26.25
2018-08-31T13:46:49.308Z,26.32
2018-08-31T13:49:15.397Z,26.12
2018-08-31T13:51:41.365Z,26.36
2018-08-31T13:54:07.341Z,26.08
2018-08-31T13:56:33.345Z,26.28
2018-08-31T13:58:59.311Z,26.32
2018-08-31T14:01:25.242Z,26.40
2018-08-31T14:03:51.217Z,26.37
2018-08-31T14:06:17.218Z,26.40
2018-08-31T14:08:43.237Z,26.59
2018-08-31T14:11:09.235Z,26.58
2018-08-31T14:13:35.205Z,26.68
2018-08-31T14:16:01.138Z,26.65
2018-08-31T14:18:27.110Z,26.66
2018-08-31T14:20:53.085Z,26.66
2018-08-31T14:23:19.053Z,26.52
2018-08-31T14:25:45.013Z,26.55
2018-08-31T14:28:11.010Z,26.57
2018-08-31T14:30:37.001Z,26.68
2018-08-31T14:33:02.974Z,26.63
2018-08-31T14:35:28.947Z,26.66
2018-08-31T14:37:54.953Z,26.53
2018-08-31T14:40:20.927Z,26.49
2018-08-31T14:42:46.873Z,26.53
2018-08-31T14:45:12.845Z,26.53
2018-08-31T14:47:38.897Z,26.56
2018-08-31T14:50:04.890Z,26.63
2018-08-31T14:52:30.877Z,26.48
2018-08-31T14:54:56.879Z,26.30
2018-08-31T14:57:22.877Z,26.57
2018-08-31T14:59:48.849Z,26.33
2018-08-31T15:02:14.872Z,26.43
2018-08-31T15:04:40.818Z,26.31
2018-08-31T15:07:06.760Z,26.47
2018-08-31T15:09:32.709Z,26.43
2018-08-31T15:11:58.644Z,26.33
2018-08-31T15:14:24.620Z,26.32
2018-08-31T15:16:50.574Z,26.18
2018-08-31T15:19:16.540Z,26.10
2018-08-31T15:21:42.548Z,26.05
2018-08-31T15:24:08.504Z,25.98
2018-08-31T15:26:34.465Z,26.09
2018-08-31T15:29:00.472Z,26.11
2018-08-31T15:31:26.499Z,25.98
2018-08-31T15:33:52.404Z,25.93
2018-08-31T15:36:18.410Z,26.10
2018-08-31T15:38:44.437Z,26.06
2018-08-31T15:41:10.475Z,25.94
2018-08-31T15:43:36.445Z,25.98
2018-08-31T15:46:02.417Z,26.00
2018-08-31T15:48:28.503Z,25.99
2018-08-31T15:50:54.474Z,25.89
2018-08-31T15:53:20.475Z,26.09
2018-08-31T15:55:46.475Z,26.02
2018-08-31T15:58:12.424Z,26.10
2018-08-31T16:00:38.493Z,26.03
2018-08-31T16:03:04.454Z,26.10
2018-08-31T16:05:30.592Z,26.04
2018-08-31T16:07:56.591Z,25.99
2018-08-31T16:10:22.536Z,25.78
2018-08-31T16:12:48.496Z,25.97
2018-08-31T16:15:14.447Z,25.79
2018-08-31T16:17:40.385Z,25.95
2018-08-31T16:20:06.320Z,25.86
2018-08-31T16:22:32.254Z,25.70
2018-08-31T16:24:58.235Z,25.87
2018-08-31T16:27:24.186Z,25.90
2018-08-31T16:29:50.153Z,25.91
2018-08-31T16:32:16.104Z,25.87
2018-08-31T16:34:42.138Z,25.84
2018-08-31T16:37:08.122Z,25.92
2018-08-31T16:39:34.077Z,26.06
2018-08-31T16:42:00.053Z,25.70
2018-08-31T16:44:26.035Z,25.88
2018-08-31T16:46:52.149Z,25.75
2018-08-31T16:49:18.120Z,25.79
2018-08-31T16:51:44.103Z,25.54
2018-08-31T16:54:10.132Z,25.79
2018-08-31T16:56:36.113Z,25.84
2018-08-31T16:59:02.076Z,25.66
2018-08-31T17:01:28.063Z,25.67
2018-08-31T17:03:54.051Z,25.54
2018-08-31T17:06:20.034Z,25.75
2018-08-31T17:08:46.022Z,25.87
2018-08-31T17:11:12.010Z,25.65
2018-08-31T17:13:37.988Z,25.56
2018-08-31T17:16:03.981Z,25.51
2018-08-31T17:18:29.959Z,25.52
2018-08-31T17:20:55.923Z,25.70
2018-08-31T17:23:21.890Z,25.75
2018-08-31T17:25:47.857Z,25.54
2018-08-31T17:28:13.824Z,25.67
2018-08-31T17:30:39.777Z,25.43
2018-08-31T17:33:05.793Z,25.39
2018-08-31T17:35:31.760Z,25.42
2018-08-31T17:37:57.729Z,25.61
2018-08-31T17:40:23.775Z,25.57
2018-08-31T17:42:49.774Z,25.63
2018-08-31T17:45:15.753Z,25.58
2018-08-31T17:47:41.707Z,25.58
2018-08-31T17:50:07.678Z,25.59
2018-08-31T17:52:33.654Z,25.52
2018-08-31T17:54:59.610Z,25.60
2018-08-31T17:57:25.563Z,25.48
2018-08-31T17:59:51.541Z,25.36
2018-08-31T18:02:17.517Z,25.67
2018-08-31T18:04:43.475Z,25.49
2018-08-31T18:07:09.478Z,25.48
2018-08-31T18:09:35.575Z,25.57
2018-08-31T18:12:01.527Z,25.48
2018-08-31T18:14:27.503Z,25.50
2018-08-31T18:16:53.473Z,25.61
2018-08-31T18:19:19.925Z,25.74
2018-08-31T18:21:45.914Z,25.53
2018-08-31T18:24:11.883Z,25.58
2018-08-31T18:26:38.000Z,25.64
2018-08-31T18:29:03.977Z,25.49
2018-08-31T18:31:29.957Z,25.32
2018-08-31T18:33:55.949Z,25.56
2018-08-31T18:36:21.890Z,25.25
2018-08-31T18:38:47.854Z,25.25
2018-08-31T18:41:13.826Z,25.44
2018-08-31T18:43:39.799Z,25.07
2018-08-31T18:46:05.785Z,25.20
2018-08-31T18:48:31.789Z,25.36
2018-08-31T18:50:57.743Z,25.29
2018-08-31T18:53:23.744Z,25.02
2018-08-31T18:55:49.731Z,25.25
2018-08-31T18:58:15.696Z,25.12
2018-08-31T19:00:41.657Z,25.19
2018-08-31T19:03:07.643Z,25.12
2018-08-31T19:05:33.616Z,25.11
2018-08-31T19:07:59.597Z,25.02
2018-08-31T19:10:25.558Z,25.00
2018-08-31T19:12:51.607Z,24.82
2018-08-31T19:15:17.582Z,25.24
2018-08-31T19:17:43.544Z,25.27
2018-08-31T19:20:09.569Z,25.36
2018-08-31T19:22:35.535Z,25.24
2018-08-31T19:25:01.575Z,25.48
2018-08-31T19:27:27.524Z,25.26
2018-08-31T19:29:53.614Z,25.13
2018-08-31T19:32:19.585Z,24.87
2018-08-31T19:34:45.647Z,24.88
2018-08-31T19:37:11.621Z,25.08
2018-08-31T19:39:37.580Z,24.90
2018-08-31T19:42:03.560Z,25.30
2018-08-31T19:44:29.582Z,24.97
2018-08-31T19:46:55.590Z,24.89
2018-08-31T19:49:21.598Z,24.65
2018-08-31T19:51:47.611Z,24.69
2018-08-31T19:54:13.666Z,24.74
2018-08-31T19:56:39.638Z,24.56
2018-08-31T19:59:05.604Z,24.39
2018-08-31T20:01:31.588Z,24.46
2018-08-31T20:03:57.616Z,24.62
2018-08-31T20:06:23.598Z,24.57
2018-08-31T20:08:49.579Z,24.54
2018-08-31T20:11:15.553Z,24.63
2018-08-31T20:13:41.566Z,24.35
2018-08-31T20:16:07.585Z,24.50
2018-08-31T20:18:33.631Z,24.20
2018-08-31T20:20:59.633Z,24.41
2018-08-31T20:23:25.643Z,24.03
2018-08-31T20:25:51.608Z,23.87
2018-08-31T20:28:17.565Z,23.86
2018-08-31T20:30:43.522Z,24.13
2018-08-31T20:33:09.579Z,24.07
2018-08-31T20:35:35.533Z,24.37
2018-08-31T20:38:01.543Z,24.55
2018-08-31T20:40:27.528Z,24.28
2018-08-31T20:42:53.512Z,24.27
2018-08-31T20:45:19.488Z,24.12
2018-08-31T20:54:31.353Z,23.07
2018-08-31T20:56:57.401Z,23.51
2018-08-31T20:59:23.348Z,23.67
2018-08-31T21:01:49.429Z,23.94
2018-08-31T21:04:15.437Z,24.05
2018-08-31T21:06:41.406Z,24.29
2018-08-31T21:09:07.364Z,24.49
2018-08-31T21:11:33.346Z,24.41
2018-08-31T21:13:59.295Z,24.30
2018-08-31T21:16:25.259Z,24.35
2018-08-31T21:18:51.219Z,24.33
2018-08-31T21:21:17.210Z,24.33
2018-08-31T21:23:43.264Z,24.22
2018-08-31T21:26:09.292Z,24.15
2018-08-31T21:28:35.284Z,24.26
2018-08-31T21:31:01.264Z,24.18
2018-08-31T21:33:27.305Z,24.13
2018-08-31T21:35:53.266Z,23.96
2018-08-31T21:38:19.238Z,24.29
2018-08-31T21:40:45.219Z,24.28
2018-08-31T21:43:11.195Z,24.37
2018-08-31T21:45:37.203Z,24.30
2018-08-31T21:48:03.223Z,24.34
2018-08-31T21:50:29.193Z,24.20
2018-08-31T21:52:55.168Z,24.32
2018-08-31T21:55:21.123Z,24.48
2018-08-31T21:57:47.096Z,24.28
2018-08-31T22:00:13.087Z,24.19
2018-08-31T22:02:39.137Z,24.15
2018-08-31T22:05:05.130Z,23.92
2018-08-31T22:07:31.088Z,24.08
2018-08-31T22:09:57.040Z,24.22
2018-08-31T22:12:22.989Z,24.29
2018-08-31T22:14:48.949Z,24.34
2018-08-31T22:17:14.884Z,24.09
2018-08-31T22:19:40.824Z,24.20
2018-08-31T22:22:06.853Z,24.14
2018-08-31T22:24:32.812Z,24.19
2018-08-31T22:26:58.754Z,24.23
2018-08-31T22:29:24.729Z,24.06
2018-08-31T22:31:50.693Z,24.28
2018-08-31T22:34:16.711Z,24.25
2018-08-31T22:36:42.641Z,24.25
2018-08-31T22:39:08.611Z,24.33
2018-08-31T22:41:34.573Z,24.14
2018-08-31T22:44:00.648Z,24.25
2018-08-31T22:46:26.626Z,24.04
2018-08-31T22:48:52.588Z,23.91
2018-08-31T22:51:18.567Z,24.00
2018-08-31T22:53:44.529Z,24.02
2018-08-31T22:56:10.461Z,23.95
2018-08-31T22:58:36.425Z,23.95
2018-08-31T23:01:02.375Z,23.97
2018-08-31T23:03:28.350Z,23.91
2018-08-31T23:05:54.299Z,24.04
2018-08-31T23:08:20.261Z,24.09
2018-08-31T23:10:46.211Z,23.90
2018-08-31T23:13:12.189Z,24.13
2018-08-31T23:15:38.155Z,24.06
2018-08-31T23:18:04.094Z,24.04
2018-08-31T23:20:30.035Z,24.10
2018-08-31T23:22:55.975Z,24.01
2018-08-31T23:25:21.921Z,23.73
2018-08-31T23:27:47.929Z,23.92
2018-08-31T23:30:13.901Z,23.89
2018-08-31T23:32:39.871Z,23.89
2018-08-31T23:35:05.808Z,23.81
2018-08-31T23:37:31.756Z,23.72
2018-08-31T23:39:57.708Z,23.85
2018-08-31T23:42:23.683Z,23.69
2018-08-31T23:44:49.651Z,23.66
2018-08-31T23:47:15.593Z,23.77
2018-08-31T23:49:41.535Z,23.58
2018-08-31T23:52:07.496Z,23.49
2018-08-31T23:54:33.464Z,23.49
2018-08-31T23:56:59.416Z,23.42
2018-08-31T23:59:25.346Z,23.40
